Time;durP1;ratioP1;P1;durP2;ratioP2;P2;SDS_P1;SDS_P2;PMS_P1;PMS_P2;Temp;Humidity;BMP_temperature;BMP_pressure;BME280_temperature;BME280_humidity;BME280_pressure;Samples;Min_cycle;Max_cycle;Signal;HPM_P1;HPM_P2
2022/10/11 00:01:14;;;;;;;13.95;3.58;;;;;;;;;;5087374;28;20047;-57
2022/10/11 00:03:39;;;;;;;11.82;3.03;;;;;;;;;;5087666;28;20359;-56
2022/10/11 00:06:04;;;;;;;18.00;3.17;;;;;;;;;;5098247;28;20169;-57
2022/10/11 00:08:31;;;;;;;16.40;3.60;;;;;;;;;;5087932;28;20019;-57
2022/10/11 00:11:01;;;;;;;13.18;2.80;;;;;;;;;;5086274;28;20153;-56
2022/10/11 00:13:26;;;;;;;14.27;2.95;;;;;;;;;;5092603;28;20509;-57
2022/10/11 00:15:52;;;;;;;20.30;4.15;;;;;;;;;;5088240;28;20103;-56
2022/10/11 00:18:17;;;;;;;17.90;3.65;;;;;;;;;;5081554;28;20069;-56
2022/10/11 00:20:42;;;;;;;18.02;3.20;;;;;;;;;;5092235;28;20069;-56
2022/10/11 00:23:07;;;;;;;14.48;3.45;;;;;;;;;;5090184;28;20020;-57
2022/10/11 00:25:32;;;;;;;19.13;3.70;;;;;;;;;;5078174;28;20107;-57
2022/10/11 00:27:58;;;;;;;16.83;3.75;;;;;;;;;;5088119;28;20089;-56
2022/10/11 00:30:23;;;;;;;19.98;3.92;;;;;;;;;;5086111;28;20065;-54
2022/10/11 00:32:49;;;;;;;12.70;3.53;;;;;;;;;;5086702;28;20016;-56
2022/10/11 00:35:14;;;;;;;13.10;3.08;;;;;;;;;;5093183;28;20024;-56
2022/10/11 00:37:39;;;;;;;14.50;2.80;;;;;;;;;;5091617;28;20354;-56
2022/10/11 00:40:08;;;;;;;15.13;3.03;;;;;;;;;;5090852;28;20028;-56
2022/10/11 00:42:34;;;;;;;17.70;3.33;;;;;;;;;;5092377;28;20047;-56
2022/10/11 00:45:18;;;;;;;19.20;3.58;;;;;;;;;;5093600;28;20024;-57
2022/10/11 00:47:43;;;;;;;22.42;3.40;;;;;;;;;;5085167;28;20417;-56
2022/10/11 00:50:08;;;;;;;16.02;3.35;;;;;;;;;;5088756;28;20032;-56
2022/10/11 00:52:36;;;;;;;10.35;2.65;;;;;;;;;;5084996;28;20061;-55
2022/10/11 00:55:02;;;;;;;17.25;3.25;;;;;;;;;;5089367;28;20012;-55
2022/10/11 00:57:30;;;;;;;15.50;4.80;;;;;;;;;;5089394;28;20016;-57
2022/10/11 00:59:55;;;;;;;22.42;3.78;;;;;;;;;;5084615;28;20093;-55
2022/10/11 01:02:21;;;;;;;14.35;3.03;;;;;;;;;;5087197;28;20020;-56
2022/10/11 01:04:47;;;;;;;26.42;4.00;;;;;;;;;;5086155;28;20048;-55
2022/10/11 01:07:12;;;;;;;25.88;4.18;;;;;;;;;;5091516;28;20027;-56
2022/10/11 01:09:37;;;;;;;13.75;3.15;;;;;;;;;;5086761;28;20031;-56
2022/10/11 01:12:04;;;;;;;15.05;3.38;;;;;;;;;;5087960;28;20035;-57
2022/10/11 01:15:01;;;;;;;18.83;3.75;;;;;;;;;;5091778;28;20223;-57
2022/10/11 01:17:29;;;;;;;25.88;3.60;;;;;;;;;;5055019;28;20055;-56
2022/10/11 01:20:13;;;;;;;19.30;3.42;;;;;;;;;;5087574;28;20561;-56
2022/10/11 01:22:44;;;;;;;18.83;3.30;;;;;;;;;;5081360;28;20103;-56
2022/10/11 01:25:42;;;;;;;18.98;3.60;;;;;;;;;;5100242;28;20028;-56
2022/10/11 01:28:10;;;;;;;20.77;4.18;;;;;;;;;;5038739;28;20036;-56
2022/10/11 01:30:35;;;;;;;18.45;3.33;;;;;;;;;;5089379;28;20037;-57
2022/10/11 01:33:17;;;;;;;12.15;3.45;;;;;;;;;;5072188;28;20085;-55
2022/10/11 01:35:48;;;;;;;6.68;2.97;;;;;;;;;;5091135;28;20099;-57
2022/10/11 01:38:29;;;;;;;19.52;3.38;;;;;;;;;;5087291;28;20020;-57
2022/10/11 01:40:55;;;;;;;18.13;3.42;;;;;;;;;;5087547;28;20031;-57
2022/10/11 01:43:20;;;;;;;17.23;3.30;;;;;;;;;;5093886;28;20070;-56
2022/10/11 01:45:49;;;;;;;20.27;4.10;;;;;;;;;;5083264;28;20539;-57
2022/10/11 01:48:15;;;;;;;19.40;3.78;;;;;;;;;;5097777;28;20019;-57
2022/10/11 01:50:40;;;;;;;20.55;3.65;;;;;;;;;;5098909;28;20039;-56
2022/10/11 01:53:11;;;;;;;11.00;3.47;;;;;;;;;;5088832;28;20033;-56
2022/10/11 01:55:38;;;;;;;20.15;4.18;;;;;;;;;;5089486;28;20023;-57
2022/10/11 01:58:06;;;;;;;18.15;3.35;;;;;;;;;;5090497;28;20451;-56
2022/10/11 02:00:38;;;;;;;20.00;4.18;;;;;;;;;;5091490;28;20012;-56
2022/10/11 02:03:13;;;;;;;26.38;3.97;;;;;;;;;;5088383;28;20035;-55
2022/10/11 02:05:39;;;;;;;26.05;4.63;;;;;;;;;;5090237;28;20063;-56
2022/10/11 02:08:16;;;;;;;19.33;3.63;;;;;;;;;;5086557;28;20039;-56
2022/10/11 02:10:43;;;;;;;21.13;4.75;;;;;;;;;;5090706;28;20031;-56
2022/10/11 02:13:09;;;;;;;15.38;3.63;;;;;;;;;;5094783;28;20534;-56
2022/10/11 02:15:34;;;;;;;19.17;3.95;;;;;;;;;;5096360;28;20129;-56
2022/10/11 02:18:00;;;;;;;26.10;4.05;;;;;;;;;;5089538;28;20340;-55
2022/10/11 02:20:25;;;;;;;20.02;4.00;;;;;;;;;;5097024;28;20027;-56
2022/10/11 02:22:52;;;;;;;20.98;3.80;;;;;;;;;;5086251;28;20099;-57
2022/10/11 02:25:19;;;;;;;18.17;4.22;;;;;;;;;;5092941;27;20024;-55
2022/10/11 02:27:44;;;;;;;19.27;3.80;;;;;;;;;;5085562;28;20507;-56
2022/10/11 02:30:09;;;;;;;18.25;3.92;;;;;;;;;;5096981;28;20043;-56
2022/10/11 02:32:35;;;;;;;31.70;4.75;;;;;;;;;;5075071;28;20487;-56
2022/10/11 02:35:00;;;;;;;13.68;3.70;;;;;;;;;;5093425;28;20103;-56
2022/10/11 02:37:44;;;;;;;18.27;3.70;;;;;;;;;;5092614;28;20572;-55
2022/10/11 02:40:11;;;;;;;18.00;4.07;;;;;;;;;;5097034;28;20016;-56
2022/10/11 02:42:38;;;;;;;26.50;4.13;;;;;;;;;;5094248;28;20089;-56
2022/10/11 02:45:08;;;;;;;20.55;3.80;;;;;;;;;;5092345;28;20024;-56
2022/10/11 02:47:33;;;;;;;23.50;4.88;;;;;;;;;;5089510;28;20399;-55
2022/10/11 02:49:58;;;;;;;21.92;4.80;;;;;;;;;;5089648;28;20028;-55
2022/10/11 02:52:23;;;;;;;24.00;4.93;;;;;;;;;;5093226;28;20049;-57
2022/10/11 02:54:49;;;;;;;27.33;5.05;;;;;;;;;;5089089;28;20420;-56
2022/10/11 02:57:14;;;;;;;29.02;4.72;;;;;;;;;;5090933;28;20028;-55
2022/10/11 02:59:39;;;;;;;23.92;4.30;;;;;;;;;;5087583;28;20138;-55
2022/10/11 03:02:04;;;;;;;16.52;3.90;;;;;;;;;;5080559;28;20031;-57
2022/10/11 03:04:30;;;;;;;27.80;4.53;;;;;;;;;;5075553;28;20155;-55
2022/10/11 03:06:55;;;;;;;18.08;4.32;;;;;;;;;;5091343;28;20043;-55
2022/10/11 03:09:20;;;;;;;29.27;5.00;;;;;;;;;;5089360;28;20174;-58
2022/10/11 03:11:45;;;;;;;23.83;4.97;;;;;;;;;;5087528;28;20019;-56
2022/10/11 03:14:11;;;;;;;31.55;5.72;;;;;;;;;;5091410;28;20390;-55
2022/10/11 03:16:36;;;;;;;27.65;4.95;;;;;;;;;;5090030;28;20049;-55
2022/10/11 03:19:01;;;;;;;20.67;4.72;;;;;;;;;;5099147;28;20103;-57
2022/10/11 03:21:26;;;;;;;22.88;4.97;;;;;;;;;;5088734;28;20028;-56
2022/10/11 03:23:52;;;;;;;18.17;5.10;;;;;;;;;;5090728;28;20024;-56
2022/10/11 03:26:17;;;;;;;32.03;5.57;;;;;;;;;;5105289;27;20516;-55
2022/10/11 03:28:42;;;;;;;35.25;6.75;;;;;;;;;;5089723;28;20454;-54
2022/10/11 03:31:07;;;;;;;31.90;6.22;;;;;;;;;;5089932;28;20039;-55
2022/10/11 03:33:33;;;;;;;41.22;7.25;;;;;;;;;;5088143;28;20455;-55
2022/10/11 03:35:58;;;;;;;37.85;7.07;;;;;;;;;;5082827;28;20716;-55
2022/10/11 03:38:23;;;;;;;22.15;6.10;;;;;;;;;;5097403;28;20024;-56
2022/10/11 03:40:48;;;;;;;22.13;5.63;;;;;;;;;;5105888;27;20528;-55
2022/10/11 03:43:14;;;;;;;24.25;5.05;;;;;;;;;;5097748;28;20111;-55
2022/10/11 03:45:41;;;;;;;14.52;4.18;;;;;;;;;;5080082;28;20039;-56
2022/10/11 03:48:06;;;;;;;34.92;5.85;;;;;;;;;;5085530;28;20369;-57
2022/10/11 03:50:31;;;;;;;33.28;7.18;;;;;;;;;;5087675;28;20032;-55
2022/10/11 03:52:57;;;;;;;33.33;7.05;;;;;;;;;;5092755;28;20081;-56
2022/10/11 03:55:22;;;;;;;42.53;8.93;;;;;;;;;;5090850;27;20016;-56
2022/10/11 03:57:47;;;;;;;37.22;8.50;;;;;;;;;;5092903;28;20462;-55
2022/10/11 04:00:13;;;;;;;27.80;7.28;;;;;;;;;;5090049;28;20069;-56
2022/10/11 04:02:38;;;;;;;56.92;8.30;;;;;;;;;;5066058;28;20294;-56
2022/10/11 04:05:05;;;;;;;32.50;8.35;;;;;;;;;;5087632;28;20513;-56
2022/10/11 04:07:30;;;;;;;33.65;6.93;;;;;;;;;;5094133;28;20026;-56
2022/10/11 04:09:55;;;;;;;28.13;6.43;;;;;;;;;;5081975;28;20032;-56
2022/10/11 04:12:21;;;;;;;34.42;8.57;;;;;;;;;;5090684;28;20012;-56
2022/10/11 04:14:46;;;;;;;22.55;7.10;;;;;;;;;;5087726;28;20030;-56
2022/10/11 04:17:11;;;;;;;26.25;7.43;;;;;;;;;;5093933;28;20454;-54
2022/10/11 04:19:36;;;;;;;27.02;8.60;;;;;;;;;;5095242;28;20019;-56
2022/10/11 04:22:02;;;;;;;45.08;11.38;;;;;;;;;;5089483;28;20246;-57
2022/10/11 04:24:28;;;;;;;34.83;8.90;;;;;;;;;;5083073;28;20020;-56
2022/10/11 04:26:53;;;;;;;40.80;12.18;;;;;;;;;;5086236;28;20024;-56
2022/10/11 04:29:18;;;;;;;48.10;12.77;;;;;;;;;;5087086;28;20024;-55
2022/10/11 04:31:43;;;;;;;42.63;12.00;;;;;;;;;;5082974;28;20035;-56
2022/10/11 04:34:08;;;;;;;45.63;17.35;;;;;;;;;;5086694;28;20035;-56
2022/10/11 04:36:34;;;;;;;60.97;16.10;;;;;;;;;;5090469;28;20085;-56
2022/10/11 04:39:00;;;;;;;59.90;15.65;;;;;;;;;;5090871;28;20024;-56
2022/10/11 04:41:25;;;;;;;53.22;15.07;;;;;;;;;;5073310;28;20024;-57
2022/10/11 04:43:51;;;;;;;59.97;15.85;;;;;;;;;;5087186;28;20031;-57
2022/10/11 04:46:16;;;;;;;62.00;14.65;;;;;;;;;;5090667;28;20364;-57
2022/10/11 04:48:41;;;;;;;52.38;16.13;;;;;;;;;;5086677;28;20032;-56
2022/10/11 04:51:06;;;;;;;47.50;14.48;;;;;;;;;;5092565;28;20097;-56
2022/10/11 04:53:32;;;;;;;45.30;15.13;;;;;;;;;;5088611;28;20016;-56
2022/10/11 04:56:01;;;;;;;57.17;14.25;;;;;;;;;;5084131;28;20334;-57
2022/10/11 04:58:27;;;;;;;73.30;17.52;;;;;;;;;;5090638;28;20451;-55
2022/10/11 05:00:52;;;;;;;67.43;16.95;;;;;;;;;;5090026;28;20656;-55
2022/10/11 05:03:17;;;;;;;74.47;19.58;;;;;;;;;;5091671;28;20023;-56
2022/10/11 05:05:43;;;;;;;62.97;17.30;;;;;;;;;;5090951;28;20085;-58
2022/10/11 05:08:08;;;;;;;59.83;17.60;;;;;;;;;;5094405;28;20643;-55
2022/10/11 05:10:33;;;;;;;73.10;19.70;;;;;;;;;;5073007;28;20371;-57
2022/10/11 05:12:58;;;;;;;78.07;18.60;;;;;;;;;;5088053;28;20077;-57
2022/10/11 05:15:23;;;;;;;69.40;18.27;;;;;;;;;;5091364;28;20040;-57
2022/10/11 05:17:49;;;;;;;63.55;19.48;;;;;;;;;;5089506;28;20047;-57
2022/10/11 05:20:14;;;;;;;76.07;18.05;;;;;;;;;;5090793;28;20075;-57
2022/10/11 05:22:39;;;;;;;69.63;17.88;;;;;;;;;;5082710;28;20027;-57
2022/10/11 05:25:05;;;;;;;57.05;16.88;;;;;;;;;;5092250;28;20428;-56
2022/10/11 05:27:30;;;;;;;78.28;19.15;;;;;;;;;;5079659;28;20020;-57
2022/10/11 05:29:55;;;;;;;71.80;19.13;;;;;;;;;;5099897;28;20497;-55
2022/10/11 05:32:21;;;;;;;70.13;20.55;;;;;;;;;;5091111;28;20441;-57
2022/10/11 05:34:46;;;;;;;77.93;22.95;;;;;;;;;;5087131;28;20039;-56
2022/10/11 05:37:11;;;;;;;73.80;24.52;;;;;;;;;;5100471;28;20095;-56
2022/10/11 05:39:36;;;;;;;74.82;22.90;;;;;;;;;;5090428;27;20016;-57
2022/10/11 05:42:02;;;;;;;81.95;26.83;;;;;;;;;;5098475;28;20031;-55
2022/10/11 05:44:27;;;;;;;81.53;23.13;;;;;;;;;;5090559;27;20027;-57
2022/10/11 05:46:52;;;;;;;70.22;24.98;;;;;;;;;;5100769;28;20031;-57
2022/10/11 05:49:17;;;;;;;97.00;26.75;;;;;;;;;;5095591;28;20139;-56
2022/10/11 05:51:42;;;;;;;93.00;27.30;;;;;;;;;;5093458;28;20385;-56
2022/10/11 05:54:08;;;;;;;93.78;26.98;;;;;;;;;;5096780;28;20027;-57
2022/10/11 05:56:33;;;;;;;85.20;24.90;;;;;;;;;;5092428;28;20023;-55
2022/10/11 05:58:58;;;;;;;70.40;22.67;;;;;;;;;;5095354;28;20485;-57
2022/10/11 06:01:24;;;;;;;80.03;23.80;;;;;;;;;;5100185;28;20027;-56
2022/10/11 06:03:49;;;;;;;88.82;25.17;;;;;;;;;;5090316;27;20027;-56
2022/10/11 06:06:14;;;;;;;77.25;24.60;;;;;;;;;;5091495;28;20358;-57
2022/10/11 06:08:40;;;;;;;79.72;24.88;;;;;;;;;;5075104;28;20020;-56
2022/10/11 06:11:12;;;;;;;83.53;25.92;;;;;;;;;;5093715;28;20077;-56
2022/10/11 06:13:38;;;;;;;78.40;26.08;;;;;;;;;;5092871;27;20361;-56
2022/10/11 06:16:03;;;;;;;82.03;25.23;;;;;;;;;;5097511;28;20024;-56
2022/10/11 06:18:28;;;;;;;65.80;21.95;;;;;;;;;;5090569;28;20044;-57
2022/10/11 06:20:54;;;;;;;66.07;22.85;;;;;;;;;;5094257;28;20023;-55
2022/10/11 06:23:19;;;;;;;79.40;23.73;;;;;;;;;;5093261;28;20039;-56
2022/10/11 06:25:54;;;;;;;78.85;21.75;;;;;;;;;;5090377;28;20020;-57
2022/10/11 06:28:19;;;;;;;64.45;21.08;;;;;;;;;;5086634;28;20490;-57
2022/10/11 06:30:44;;;;;;;67.30;22.92;;;;;;;;;;5086964;28;20032;-56
2022/10/11 06:33:09;;;;;;;73.03;23.05;;;;;;;;;;5089773;28;20023;-55
2022/10/11 06:35:34;;;;;;;52.90;17.67;;;;;;;;;;5086253;28;20028;-56
2022/10/11 06:38:00;;;;;;;64.60;20.55;;;;;;;;;;5084171;28;20024;-57
2022/10/11 06:40:25;;;;;;;61.70;21.45;;;;;;;;;;5094729;28;20024;-57
2022/10/11 06:42:50;;;;;;;65.90;18.98;;;;;;;;;;5078374;28;20020;-57
2022/10/11 06:45:15;;;;;;;68.60;20.23;;;;;;;;;;5089197;28;20119;-57
2022/10/11 06:47:41;;;;;;;60.25;18.38;;;;;;;;;;5091671;28;20027;-56
2022/10/11 06:50:06;;;;;;;54.83;18.65;;;;;;;;;;5090898;28;20043;-56
2022/10/11 06:52:31;;;;;;;59.25;19.42;;;;;;;;;;5089946;28;20152;-57
2022/10/11 06:54:56;;;;;;;53.72;18.65;;;;;;;;;;5093395;28;20038;-57
2022/10/11 06:57:22;;;;;;;48.85;17.90;;;;;;;;;;5094249;28;20343;-57
2022/10/11 06:59:47;;;;;;;54.22;17.35;;;;;;;;;;5084995;28;20032;-55
2022/10/11 07:02:12;;;;;;;44.67;16.17;;;;;;;;;;5090404;28;20012;-57
2022/10/11 07:04:38;;;;;;;50.38;17.77;;;;;;;;;;5086789;28;20127;-57
2022/10/11 07:07:03;;;;;;;52.35;17.25;;;;;;;;;;5081557;28;20027;-57
2022/10/11 07:09:29;;;;;;;52.85;16.08;;;;;;;;;;5090380;28;20016;-57
2022/10/11 07:11:54;;;;;;;48.65;16.90;;;;;;;;;;5088673;28;20081;-57
2022/10/11 07:14:20;;;;;;;50.55;17.17;;;;;;;;;;5079788;28;20412;-56
2022/10/11 07:16:45;;;;;;;46.00;15.35;;;;;;;;;;5079254;28;20020;-58
2022/10/11 07:19:10;;;;;;;37.95;15.98;;;;;;;;;;5081350;28;20024;-55
2022/10/11 07:21:36;;;;;;;54.72;16.85;;;;;;;;;;5087005;28;20485;-58
2022/10/11 07:24:01;;;;;;;44.45;15.07;;;;;;;;;;5084595;28;20510;-56
2022/10/11 07:26:27;;;;;;;51.75;18.58;;;;;;;;;;5085753;28;20023;-57
2022/10/11 07:28:52;;;;;;;48.60;17.17;;;;;;;;;;5089950;28;20059;-57
2022/10/11 07:31:18;;;;;;;45.88;17.80;;;;;;;;;;5089682;28;20071;-57
2022/10/11 07:33:43;;;;;;;43.55;15.77;;;;;;;;;;5087682;28;20421;-57
2022/10/11 07:36:09;;;;;;;44.20;17.77;;;;;;;;;;5084482;28;20044;-57
2022/10/11 07:38:34;;;;;;;44.22;18.02;;;;;;;;;;5090911;28;20077;-56
2022/10/11 07:41:04;;;;;;;49.55;16.77;;;;;;;;;;5092436;28;20389;-57
2022/10/11 07:43:29;;;;;;;44.60;15.17;;;;;;;;;;5092766;28;20099;-57
2022/10/11 07:45:55;;;;;;;39.60;15.23;;;;;;;;;;5081635;28;20144;-57
2022/10/11 07:48:21;;;;;;;44.20;15.82;;;;;;;;;;5093963;28;20027;-56
2022/10/11 07:50:46;;;;;;;50.35;16.67;;;;;;;;;;5106924;27;20514;-58
2022/10/11 07:53:13;;;;;;;58.17;17.55;;;;;;;;;;5082382;28;20119;-57
2022/10/11 07:55:39;;;;;;;50.30;18.00;;;;;;;;;;5086221;28;20028;-57
2022/10/11 07:58:05;;;;;;;45.55;18.58;;;;;;;;;;5091659;28;20024;-57
2022/10/11 08:00:30;;;;;;;53.63;18.20;;;;;;;;;;5090990;27;20020;-57
2022/10/11 08:02:56;;;;;;;59.00;18.27;;;;;;;;;;5089150;28;20081;-58
2022/10/11 08:05:21;;;;;;;55.85;18.13;;;;;;;;;;5081065;28;20077;-56
2022/10/11 08:07:47;;;;;;;49.15;17.38;;;;;;;;;;5081715;28;20515;-57
2022/10/11 08:10:12;;;;;;;54.47;18.20;;;;;;;;;;5077949;28;20298;-57
2022/10/11 08:12:38;;;;;;;43.25;16.70;;;;;;;;;;5073723;28;20481;-57
2022/10/11 08:15:03;;;;;;;41.72;13.38;;;;;;;;;;5080657;28;20382;-58
2022/10/11 08:17:28;;;;;;;38.70;13.07;;;;;;;;;;5083494;28;20449;-58
2022/10/11 08:19:54;;;;;;;40.30;13.48;;;;;;;;;;5098185;28;20038;-58
2022/10/11 08:22:19;;;;;;;35.35;15.48;;;;;;;;;;5087302;28;20020;-57
2022/10/11 08:24:44;;;;;;;41.10;14.20;;;;;;;;;;5090293;28;20059;-57
2022/10/11 08:27:09;;;;;;;42.45;13.30;;;;;;;;;;5088695;28;20027;-57
2022/10/11 08:29:35;;;;;;;37.53;12.13;;;;;;;;;;5091701;28;20455;-57
2022/10/11 08:32:00;;;;;;;33.53;13.02;;;;;;;;;;5082549;28;20067;-57
2022/10/11 08:34:25;;;;;;;40.33;15.10;;;;;;;;;;5088547;28;20047;-56
2022/10/11 08:36:50;;;;;;;37.20;13.35;;;;;;;;;;5084815;28;20477;-56
2022/10/11 08:39:16;;;;;;;35.33;13.73;;;;;;;;;;5091164;28;20031;-57
2022/10/11 08:41:46;;;;;;;39.95;13.52;;;;;;;;;;5091275;28;20020;-57
2022/10/11 08:44:11;;;;;;;;;;;;;;;;;;5083312;28;20153;-56
2022/10/11 08:46:37;;;;;;;42.88;13.70;;;;;;;;;;5081469;28;20002;-56
2022/10/11 08:49:03;;;;;;;30.33;13.15;;;;;;;;;;5080920;28;20032;-58
2022/10/11 08:51:29;;;;;;;42.80;13.85;;;;;;;;;;5086308;28;20096;-58
2022/10/11 08:53:59;;;;;;;46.00;13.88;;;;;;;;;;5091370;28;20051;-57
2022/10/11 08:56:24;;;;;;;48.60;13.82;;;;;;;;;;5089074;28;20494;-57
2022/10/11 08:58:53;;;;;;;34.78;13.43;;;;;;;;;;5076830;28;20115;-57
2022/10/11 09:01:22;;;;;;;38.25;12.88;;;;;;;;;;5087973;28;20455;-57
2022/10/11 09:03:47;;;;;;;37.00;12.57;;;;;;;;;;5086528;28;20034;-57
2022/10/11 09:06:20;;;;;;;33.38;13.23;;;;;;;;;;5086392;28;20015;-57
2022/10/11 09:09:15;;;;;;;34.13;12.20;;;;;;;;;;5072705;28;20577;-57
2022/10/11 09:11:58;;;;;;;37.30;12.73;;;;;;;;;;5012576;28;20030;-57
2022/10/11 09:14:35;;;;;;;34.63;12.10;;;;;;;;;;5081654;28;20043;-56
2022/10/11 09:17:01;;;;;;;34.20;11.80;;;;;;;;;;5085116;28;20027;-57
2022/10/11 09:19:41;;;;;;;29.73;11.35;;;;;;;;;;5078628;28;20021;-57
2022/10/11 09:22:18;;;;;;;45.85;12.18;;;;;;;;;;5088456;28;20637;-57
2022/10/11 09:24:52;;;;;;;39.63;11.00;;;;;;;;;;5087241;28;20027;-57
2022/10/11 09:27:19;;;;;;;33.45;11.35;;;;;;;;;;5081435;28;20060;-57
2022/10/11 09:29:44;;;;;;;33.67;11.07;;;;;;;;;;5090813;28;20107;-57
2022/10/11 09:32:20;;;;;;;31.42;9.38;;;;;;;;;;5085444;28;20488;-57
2022/10/11 09:34:45;;;;;;;37.38;11.45;;;;;;;;;;5086387;28;20069;-57
2022/10/11 09:37:21;;;;;;;28.77;9.77;;;;;;;;;;5092425;28;20028;-56
2022/10/11 09:39:49;;;;;;;34.45;10.52;;;;;;;;;;5090656;28;20031;-56
2022/10/11 09:42:15;;;;;;;28.17;9.30;;;;;;;;;;5082526;28;20015;-57
2022/10/11 09:44:49;;;;;;;23.88;8.93;;;;;;;;;;5078169;28;20024;-56
2022/10/11 09:47:21;;;;;;;24.25;8.70;;;;;;;;;;5090372;28;20526;-56
2022/10/11 09:49:55;;;;;;;27.95;8.60;;;;;;;;;;5090357;28;20031;-56
2022/10/11 09:52:21;;;;;;;26.45;8.70;;;;;;;;;;5081432;28;20020;-55
2022/10/11 09:54:47;;;;;;;24.73;9.23;;;;;;;;;;5086945;28;20112;-56
2022/10/11 09:57:21;;;;;;;30.65;8.40;;;;;;;;;;5089552;28;20104;-56
2022/10/11 10:00:16;;;;;;;25.98;8.13;;;;;;;;;;5086544;28;20069;-56
2022/10/11 10:02:42;;;;;;;25.73;8.85;;;;;;;;;;5079327;28;20032;-55
2022/10/11 10:05:07;;;;;;;23.65;8.15;;;;;;;;;;5094145;28;20055;-56
2022/10/11 10:07:34;;;;;;;24.10;8.60;;;;;;;;;;5089441;28;20024;-56
2022/10/11 10:10:08;;;;;;;23.40;7.60;;;;;;;;;;5094190;28;20020;-57
2022/10/11 10:12:33;;;;;;;33.63;9.30;;;;;;;;;;5092062;28;20111;-56
2022/10/11 10:15:01;;;;;;;20.23;7.10;;;;;;;;;;5090753;28;20099;-56
2022/10/11 10:17:26;;;;;;;26.50;8.27;;;;;;;;;;5088167;28;20032;-56
2022/10/11 10:19:52;;;;;;;26.85;8.32;;;;;;;;;;5082111;28;20463;-55
2022/10/11 10:22:18;;;;;;;23.70;8.20;;;;;;;;;;5090620;28;20496;-57
2022/10/11 10:24:43;;;;;;;19.52;7.20;;;;;;;;;;5086051;28;20517;-56
2022/10/11 10:27:09;;;;;;;25.00;7.53;;;;;;;;;;5083448;28;20044;-57
2022/10/11 10:29:34;;;;;;;30.95;7.35;;;;;;;;;;5091782;28;20027;-55
2022/10/11 10:32:01;;;;;;;19.50;6.45;;;;;;;;;;5089285;28;20024;-56
2022/10/11 10:34:28;;;;;;;20.15;6.15;;;;;;;;;;5077904;28;20032;-57
2022/10/11 10:36:55;;;;;;;23.40;5.70;;;;;;;;;;5103821;28;20539;-57
2022/10/11 10:39:20;;;;;;;20.65;6.35;;;;;;;;;;5083111;28;20024;-56
2022/10/11 10:41:46;;;;;;;31.70;6.60;;;;;;;;;;5082837;28;20047;-56
2022/10/11 10:44:11;;;;;;;18.13;6.05;;;;;;;;;;5097293;28;20351;-56
2022/10/11 10:46:55;;;;;;;18.83;5.38;;;;;;;;;;5084171;28;20069;-55
2022/10/11 10:49:35;;;;;;;14.07;5.15;;;;;;;;;;5089092;28;20556;-55
2022/10/11 10:52:04;;;;;;;;;;;;;;;;;;5081533;28;20033;-56
2022/10/11 10:54:44;;;;;;;20.40;5.47;;;;;;;;;;5096679;28;19911;-56
2022/10/11 10:57:12;;;;;;;16.15;4.68;;;;;;;;;;5081661;28;20027;-55
2022/10/11 11:00:04;;;;;;;22.50;5.18;;;;;;;;;;5082906;28;20086;-56
2022/10/11 11:02:48;;;;;;;12.07;4.15;;;;;;;;;;5060724;28;20083;-57
2022/10/11 11:05:15;;;;;;;18.65;4.47;;;;;;;;;;5075218;28;20044;-56
2022/10/11 11:08:09;;;;;;;16.38;4.07;;;;;;;;;;5091593;28;20053;-56
2022/10/11 11:10:39;;;;;;;13.43;4.05;;;;;;;;;;5066385;28;20036;-54
2022/10/11 11:13:08;;;;;;;17.90;3.90;;;;;;;;;;5086631;28;20024;-53
2022/10/11 11:15:37;;;;;;;15.70;4.60;;;;;;;;;;5088073;28;20024;-56
2022/10/11 11:18:06;;;;;;;19.60;4.88;;;;;;;;;;5079367;28;20028;-55
2022/10/11 11:20:50;;;;;;;11.52;3.90;;;;;;;;;;5079868;28;20023;-55
2022/10/11 11:23:45;;;;;;;18.27;4.22;;;;;;;;;;5074733;28;20024;-58
2022/10/11 11:26:22;;;;;;;16.20;4.10;;;;;;;;;;5077551;28;20036;-57
2022/10/11 11:29:06;;;;;;;18.27;3.90;;;;;;;;;;5079760;28;20531;-57
2022/10/11 11:31:35;;;;;;;12.55;3.90;;;;;;;;;;5076254;28;20068;-57
2022/10/11 11:34:19;;;;;;;11.70;3.28;;;;;;;;;;5073694;28;20021;-56
2022/10/11 11:36:45;;;;;;;13.48;4.10;;;;;;;;;;5081941;28;20117;-56
2022/10/11 11:39:21;;;;;;;15.25;3.63;;;;;;;;;;5083748;28;20097;-55
2022/10/11 11:41:49;;;;;;;15.27;4.10;;;;;;;;;;5079870;28;20024;-56
2022/10/11 11:44:16;;;;;;;16.58;5.63;;;;;;;;;;5092233;28;20026;-57
2022/10/11 11:46:43;;;;;;;16.15;4.50;;;;;;;;;;5081692;28;20051;-56
2022/10/11 11:49:35;;;;;;;13.82;3.25;;;;;;;;;;5068230;28;20164;-56
2022/10/11 11:52:00;;;;;;;14.13;3.30;;;;;;;;;;5076511;28;20436;-57
2022/10/11 11:54:41;;;;;;;17.75;4.22;;;;;;;;;;5070367;28;20453;-55
2022/10/11 11:57:25;;;;;;;19.45;4.00;;;;;;;;;;5073096;28;20060;-57
2022/10/11 11:59:56;;;;;;;16.85;3.65;;;;;;;;;;5077290;28;20051;-56
2022/10/11 12:02:38;;;;;;;18.58;3.95;;;;;;;;;;5078641;28;20027;-56
2022/10/11 12:05:04;;;;;;;14.82;4.25;;;;;;;;;;5074622;28;20123;-57
2022/10/11 12:07:30;;;;;;;13.00;4.03;;;;;;;;;;5078626;28;20023;-56
2022/10/11 12:10:31;;;;;;;12.35;4.28;;;;;;;;;;5059106;28;20444;-55
2022/10/11 12:13:02;;;;;;;11.63;4.15;;;;;;;;;;5028013;28;20555;-56
2022/10/11 12:15:27;;;;;;;17.08;4.15;;;;;;;;;;5075923;28;20298;-56
2022/10/11 12:17:56;;;;;;;17.63;3.88;;;;;;;;;;5078277;28;20025;-57
2022/10/11 12:20:24;;;;;;;15.18;3.83;;;;;;;;;;5085963;28;20076;-56
2022/10/11 12:22:53;;;;;;;15.82;4.05;;;;;;;;;;5081435;28;20028;-54
2022/10/11 12:25:21;;;;;;;8.82;3.83;;;;;;;;;;5081170;28;20056;-57
2022/10/11 12:27:46;;;;;;;18.85;4.75;;;;;;;;;;5088900;28;20082;-55
2022/10/11 12:30:30;;;;;;;16.17;4.72;;;;;;;;;;5089036;28;20054;-56
2022/10/11 12:33:02;;;;;;;17.85;4.13;;;;;;;;;;5087440;28;20492;-54
2022/10/11 12:35:35;;;;;;;15.13;4.00;;;;;;;;;;5089780;28;20458;-54
2022/10/11 12:38:19;;;;;;;17.15;4.63;;;;;;;;;;5089611;28;20373;-56
2022/10/11 12:40:46;;;;;;;18.50;5.60;;;;;;;;;;5088975;28;20028;-57
2022/10/11 12:43:14;;;;;;;16.55;5.47;;;;;;;;;;5090167;28;20063;-56
2022/10/11 12:45:40;;;;;;;19.67;4.95;;;;;;;;;;5085885;28;20355;-56
2022/10/11 12:48:24;;;;;;;17.80;5.35;;;;;;;;;;5068383;28;20090;-56
2022/10/11 12:50:50;;;;;;;13.75;4.53;;;;;;;;;;5083626;28;20032;-55
2022/10/11 12:53:25;;;;;;;13.90;4.90;;;;;;;;;;5078200;28;20078;-53
2022/10/11 12:55:59;;;;;;;15.05;5.22;;;;;;;;;;5073615;28;20466;-55
2022/10/11 12:58:25;;;;;;;17.15;5.30;;;;;;;;;;5075762;28;20497;-55
2022/10/11 13:00:51;;;;;;;15.95;4.93;;;;;;;;;;5079534;28;20036;-55
2022/10/11 13:03:27;;;;;;;17.50;5.28;;;;;;;;;;5072705;28;20850;-57
2022/10/11 13:05:55;;;;;;;10.90;4.43;;;;;;;;;;5074756;28;20036;-56
2022/10/11 13:08:27;;;;;;;16.55;5.20;;;;;;;;;;5076687;28;20081;-55
2022/10/11 13:10:52;;;;;;;15.23;4.57;;;;;;;;;;5078647;28;20115;-57
2022/10/11 13:13:21;;;;;;;18.70;4.70;;;;;;;;;;5080095;28;20095;-57
2022/10/11 13:15:46;;;;;;;12.30;4.28;;;;;;;;;;5071830;28;20112;-56
2022/10/11 13:18:12;;;;;;;15.13;4.18;;;;;;;;;;5082293;28;20349;-55
2022/10/11 13:20:38;;;;;;;12.35;4.35;;;;;;;;;;5075111;28;20039;-57
2022/10/11 13:23:03;;;;;;;9.73;3.67;;;;;;;;;;5073593;28;20016;-56
2022/10/11 13:25:29;;;;;;;13.30;3.33;;;;;;;;;;5087319;28;20461;-56
2022/10/11 13:27:54;;;;;;;13.45;3.72;;;;;;;;;;5078018;28;20497;-56
2022/10/11 13:30:30;;;;;;;13.23;3.22;;;;;;;;;;5081618;28;20032;-54
2022/10/11 13:32:55;;;;;;;12.15;3.30;;;;;;;;;;5091962;28;20025;-56
2022/10/11 13:35:36;;;;;;;15.68;3.60;;;;;;;;;;5085061;28;20487;-54
2022/10/11 13:38:01;;;;;;;11.23;2.72;;;;;;;;;;5073463;28;20019;-55
2022/10/11 13:40:27;;;;;;;10.98;2.97;;;;;;;;;;5077603;28;20222;-55
2022/10/11 13:42:52;;;;;;;21.13;3.80;;;;;;;;;;5063667;28;20023;-55
2022/10/11 13:45:19;;;;;;;14.82;3.95;;;;;;;;;;5088008;28;20935;-55
2022/10/11 13:47:44;;;;;;;12.38;3.03;;;;;;;;;;5082691;28;20020;-55
2022/10/11 13:50:15;;;;;;;12.07;3.00;;;;;;;;;;5092034;28;20036;-58
2022/10/11 13:53:00;;;;;;;11.10;3.45;;;;;;;;;;5087248;28;20020;-53
2022/10/11 13:55:29;;;;;;;12.38;3.30;;;;;;;;;;5090762;28;20547;-57
2022/10/11 13:57:54;;;;;;;16.15;3.95;;;;;;;;;;5089706;28;20111;-57
2022/10/11 14:00:21;;;;;;;16.65;3.35;;;;;;;;;;5087045;28;20107;-54
2022/10/11 14:02:47;;;;;;;11.57;3.13;;;;;;;;;;5089270;28;20102;-57
2022/10/11 14:05:22;;;;;;;8.90;2.88;;;;;;;;;;5092956;28;20660;-57
2022/10/11 14:07:48;;;;;;;10.13;3.30;;;;;;;;;;5086795;28;20050;-57
2022/10/11 14:10:18;;;;;;;16.50;3.33;;;;;;;;;;5091272;28;20461;-57
2022/10/11 14:12:43;;;;;;;12.82;3.55;;;;;;;;;;5090418;28;20024;-56
2022/10/11 14:15:24;;;;;;;10.68;3.05;;;;;;;;;;5103083;28;20043;-57
2022/10/11 14:17:50;;;;;;;14.85;3.97;;;;;;;;;;5087874;28;20770;-57
2022/10/11 14:20:32;;;;;;;11.52;3.30;;;;;;;;;;5085171;28;20111;-57
2022/10/11 14:22:57;;;;;;;9.50;3.65;;;;;;;;;;5079512;28;20028;-57
2022/10/11 14:25:22;;;;;;;10.18;2.70;;;;;;;;;;5094429;28;20073;-53
2022/10/11 14:27:48;;;;;;;8.50;2.80;;;;;;;;;;5090224;28;20020;-54
2022/10/11 14:30:17;;;;;;;10.30;3.00;;;;;;;;;;5089443;28;20080;-58
2022/10/11 14:32:42;;;;;;;9.55;3.13;;;;;;;;;;5087385;28;20020;-55